This is the latest recevied weather packets stored in our database for station/object AI5BL. If no packets are shown the sender has not sent any weather packets the latest 10 day(s).
| Time | Temp. | Humidity | Pressure | Rain* | Wind** | Luminosity | Snow |
|---|---|---|---|---|---|---|---|
| 1777810126 | 6.67° C | 99% | 1023.7 hPa | 0 mm | - | 27 W/m² | - |
| 1777808310 | 5.56° C | 99% | 1023.3 hPa | 0 mm | - | 15 W/m² | - |
| 1777807104 | 5.56° C | 99% | 1022.9 hPa | 0 mm | - | 6 W/m² | - |
| 1777806497 | 5.56° C | 99% | 1022.8 hPa | 0 mm | - | 2 W/m² | - |
| 1777805891 | 6.11° C | 99% | 1023 hPa | 0 mm | - | 0 W/m² | - |
| 1777805286 | 6.11° C | 99% | 1022.9 hPa | 0 mm | - | 0 W/m² | - |
| 1777803771 | 6.11° C | 99% | 1022.7 hPa | 0 mm | - | 0 W/m² | - |
| 1777803165 | 6.11° C | 99% | 1022.7 hPa | 0 mm | - | 0 W/m² | - |
| 1777802862 | 6.67° C | 99% | 1022.7 hPa | 0 mm | - | 0 W/m² | - |
| 1777802257 | 6.11° C | 99% | 1022.5 hPa | 0 mm | - | 0 W/m² | - |
| 1777801652 | 6.67° C | 99% | 1022.5 hPa | 0 mm | - | 0 W/m² | - |
| 1777801046 | 6.11° C | 99% | 1022.3 hPa | 0 mm | - | 0 W/m² | - |
| 1777800743 | 6.11° C | 99% | 1022.4 hPa | 0 mm | - | 0 W/m² | - |
| 1777800438 | 6.11° C | 99% | 1022.3 hPa | 0 mm | - | 0 W/m² | - |
| 1777800136 | 6.67° C | 99% | 1022.2 hPa | 0 mm | - | 0 W/m² | - |
| 1777799836 | 6.67° C | 99% | 1022.2 hPa | 0 mm | - | 0 W/m² | - |
| 1777799534 | 7.22° C | 99% | 1022.4 hPa | 0 mm | - | 0 W/m² | - |
| 1777799229 | 6.67° C | 99% | 1022.4 hPa | 0 mm | - | 0 W/m² | - |
| 1777798926 | 6.67° C | 99% | 1022.2 hPa | 0 mm | - | 0 W/m² | - |
| 1777798621 | 6.67° C | 99% | 1022.1 hPa | 0 mm | - | 0 W/m² | - |
| 1777798319 | 7.22° C | 99% | 1022.1 hPa | 0 mm | - | 0 W/m² | - |
| 1777798015 | 7.22° C | 99% | 1021.9 hPa | 0 mm | - | 0 W/m² | - |
| 1777797410 | 6.67° C | 99% | 1021.9 hPa | 0 mm | - | 0 W/m² | - |
| 1777797108 | 6.67° C | 99% | 1022 hPa | 0 mm | - | 0 W/m² | - |
| 1777796804 | 6.67° C | 99% | 1021.8 hPa | 0 mm | - | 0 W/m² | - |
* Rain latest hour (hover to see other rain measurements)
** Current wind speed in m/s (hover to see current wind gust speed)